createdAt,value
2017-12-21T00:02:37.083Z,97.53
2017-12-21T00:05:10.755Z,99.17
2017-12-21T00:07:44.740Z,115.53
2017-12-21T00:10:18.522Z,113.37
2017-12-21T00:12:52.282Z,111.67
2017-12-21T00:15:26.317Z,99.47
2017-12-21T00:18:00.283Z,102.67
2017-12-21T00:20:34.511Z,115.27
2017-12-21T00:41:06.822Z,96.50
2017-12-21T00:43:40.877Z,94.97
2017-12-21T00:46:15.268Z,94.60
2017-12-21T00:48:49.166Z,113.30
2017-12-21T00:51:23.338Z,87.83
2017-12-21T00:53:57.517Z,80.37
2017-12-21T00:56:31.841Z,76.73
2017-12-21T00:59:07.182Z,88.13
2017-12-21T01:19:40.997Z,79.73
2017-12-21T01:22:15.550Z,107.40
2017-12-21T01:24:49.604Z,102.70
2017-12-21T01:27:23.625Z,106.27
2017-12-21T01:29:57.658Z,91.10
2017-12-21T01:32:31.618Z,110.67
2017-12-21T01:35:05.673Z,103.60
2017-12-21T01:37:39.809Z,101.87
2017-12-21T01:58:12.347Z,107.10
2017-12-21T02:00:46.268Z,87.97
2017-12-21T02:03:20.136Z,92.07
2017-12-21T02:05:53.995Z,99.53
2017-12-21T02:08:28.254Z,73.00
2017-12-21T02:11:02.648Z,83.10
2017-12-21T02:13:36.329Z,75.20
2017-12-21T02:16:09.935Z,83.00
2017-12-21T02:36:43.326Z,77.20
2017-12-21T02:39:17.471Z,85.13
2017-12-21T02:41:51.475Z,94.33
2017-12-21T02:44:25.486Z,86.33
2017-12-21T02:46:59.610Z,86.10
2017-12-21T02:49:33.825Z,78.20
2017-12-21T02:52:07.875Z,75.47
2017-12-21T02:54:41.933Z,80.07
2017-12-21T03:15:14.701Z,91.57
2017-12-21T03:17:48.623Z,91.40
2017-12-21T03:20:22.204Z,101.10
2017-12-21T03:22:57.354Z,98.27
2017-12-21T03:25:32.188Z,100.57
2017-12-21T03:28:06.262Z,86.63
2017-12-21T03:30:40.103Z,93.67
2017-12-21T03:33:14.733Z,112.73
2017-12-21T03:53:48.356Z,103.40
2017-12-21T03:56:22.906Z,117.67
2017-12-21T03:58:56.973Z,115.77
2017-12-21T04:01:30.998Z,141.63
2017-12-21T04:04:05.231Z,151.90
2017-12-21T04:06:39.083Z,157.53
2017-12-21T04:09:13.087Z,155.50
2017-12-21T04:11:47.421Z,173.97
2017-12-21T04:32:20.850Z,163.57
2017-12-21T04:34:55.601Z,144.13
2017-12-21T04:37:29.704Z,186.00
2017-12-21T04:40:03.390Z,145.17
2017-12-21T04:42:37.953Z,128.97
2017-12-21T04:45:12.288Z,140.20
2017-12-21T04:47:45.844Z,143.20
2017-12-21T04:50:20.018Z,137.50
2017-12-21T05:04:53.760Z,247.17
2017-12-21T05:07:28.041Z,241.80
2017-12-21T05:10:02.867Z,266.53
2017-12-21T05:12:37.265Z,249.47
2017-12-21T05:15:11.524Z,222.97
2017-12-21T05:17:45.534Z,207.23
2017-12-21T05:20:19.758Z,219.97
2017-12-21T05:40:53.182Z,237.70
2017-12-21T05:43:26.900Z,188.37
2017-12-21T05:46:00.788Z,252.37
2017-12-21T05:48:34.594Z,234.13
2017-12-21T05:51:08.291Z,201.10
2017-12-21T05:53:41.833Z,249.60
2017-12-21T05:56:15.730Z,212.60
2017-12-21T05:58:49.783Z,224.83
2017-12-21T06:19:22.568Z,245.93
2017-12-21T06:21:56.277Z,296.10
2017-12-21T06:24:30.262Z,297.07
2017-12-21T06:27:04.757Z,249.13
2017-12-21T06:29:38.787Z,298.10
2017-12-21T06:32:13.029Z,249.53
2017-12-21T06:34:47.262Z,222.83
2017-12-21T06:37:20.944Z,216.03
2017-12-21T06:57:54.622Z,285.37
2017-12-21T07:00:28.562Z,258.80
2017-12-21T07:03:02.195Z,278.33
2017-12-21T07:05:35.975Z,276.53
2017-12-21T07:08:09.878Z,366.50
2017-12-21T07:10:44.029Z,265.13
2017-12-21T07:13:17.809Z,288.00
2017-12-21T07:15:51.627Z,302.93
2017-12-21T07:24:24.446Z,341.90
2017-12-21T07:26:58.573Z,326.87
2017-12-21T07:29:32.759Z,271.53
2017-12-21T07:32:06.929Z,321.17
2017-12-21T07:34:41.051Z,301.40
2017-12-21T07:37:14.804Z,270.57
2017-12-21T07:39:48.590Z,327.27
2017-12-21T07:42:26.211Z,323.37
2017-12-21T07:44:59.858Z,316.83
2017-12-21T07:47:33.973Z,301.00
2017-12-21T07:50:08.297Z,329.40
2017-12-21T07:52:42.729Z,305.90
2017-12-21T07:55:16.652Z,288.77
2017-12-21T07:57:51.175Z,273.23
2017-12-21T08:00:25.202Z,276.17
2017-12-21T08:03:03.754Z,272.17
2017-12-21T08:05:37.329Z,267.20
2017-12-21T08:08:11.269Z,219.40
2017-12-21T08:10:45.297Z,284.87
2017-12-21T08:13:19.691Z,288.83
2017-12-21T08:15:54.380Z,327.03
2017-12-21T08:18:28.367Z,448.13
2017-12-21T08:21:02.303Z,317.53
2017-12-21T08:26:35.640Z,316.33
2017-12-21T08:29:09.554Z,289.00
2017-12-21T08:31:43.500Z,304.60
2017-12-21T08:34:17.559Z,339.90
2017-12-21T08:36:51.437Z,374.77
2017-12-21T08:39:25.526Z,371.00
2017-12-21T08:41:59.658Z,357.13
2017-12-21T08:44:33.831Z,352.30
2017-12-21T08:47:07.985Z,388.90
2017-12-21T08:49:42.224Z,418.10
2017-12-21T08:52:16.135Z,343.67
2017-12-21T08:54:50.488Z,342.57
2017-12-21T08:57:24.782Z,335.67
2017-12-21T08:59:59.090Z,368.60
2017-12-21T09:02:32.959Z,372.80
2017-12-21T09:08:07.278Z,385.90
2017-12-21T09:10:41.382Z,348.83
2017-12-21T09:13:15.110Z,344.57
2017-12-21T09:15:48.749Z,309.30
2017-12-21T09:18:22.546Z,330.13
2017-12-21T09:20:57.579Z,307.30
2017-12-21T09:23:31.984Z,341.07
2017-12-21T09:26:05.911Z,343.33
2017-12-21T09:34:59.970Z,318.20
2017-12-21T09:37:33.621Z,291.83
2017-12-21T09:40:07.456Z,268.90
2017-12-21T09:42:41.088Z,270.30
2017-12-21T09:45:15.780Z,256.33
2017-12-21T09:47:50.012Z,243.73
2017-12-21T09:50:24.248Z,215.27
2017-12-21T09:52:58.282Z,224.80
2017-12-21T09:55:31.827Z,222.90
2017-12-21T09:58:06.215Z,228.97
2017-12-21T10:00:40.543Z,169.77
2017-12-21T10:03:14.910Z,163.80
2017-12-21T10:05:48.679Z,174.20
2017-12-21T10:08:23.746Z,151.20
2017-12-21T10:10:57.893Z,177.93
2017-12-21T10:13:31.871Z,187.17
2017-12-21T10:16:05.916Z,220.40
2017-12-21T10:18:40.222Z,226.87
2017-12-21T10:21:14.387Z,224.77
2017-12-21T10:23:48.388Z,223.00
2017-12-21T10:26:22.640Z,223.23
2017-12-21T10:28:56.403Z,189.70
2017-12-21T10:31:30.089Z,198.33
2017-12-21T10:37:03.549Z,202.27
2017-12-21T10:39:38.056Z,185.13
2017-12-21T10:42:11.787Z,281.60
2017-12-21T10:44:45.840Z,261.73
2017-12-21T10:47:20.647Z,278.23
2017-12-21T10:49:55.274Z,310.30
2017-12-21T10:52:28.909Z,256.83
2017-12-21T10:55:02.624Z,280.37
2017-12-21T10:57:42.235Z,259.47
2017-12-21T11:00:16.110Z,259.67
2017-12-21T11:02:49.908Z,232.93
2017-12-21T11:05:23.724Z,268.00
2017-12-21T11:07:57.728Z,244.53
2017-12-21T11:10:31.780Z,216.17
2017-12-21T11:13:06.108Z,275.07
2017-12-21T11:15:40.485Z,199.47
2017-12-21T11:21:14.811Z,234.57
2017-12-21T11:23:48.958Z,188.40
2017-12-21T11:26:22.866Z,238.60
2017-12-21T11:28:57.164Z,210.63
2017-12-21T11:31:31.343Z,268.83
2017-12-21T11:34:05.618Z,308.97
2017-12-21T11:36:39.555Z,278.83
2017-12-21T11:48:35.450Z,304.57
2017-12-21T11:51:09.231Z,264.77
2017-12-21T11:53:42.968Z,365.43
2017-12-21T11:56:16.789Z,321.67
2017-12-21T11:58:50.991Z,343.87
2017-12-21T12:01:25.699Z,404.67
2017-12-21T12:04:00.044Z,382.13
2017-12-21T12:06:34.049Z,374.83
2017-12-21T12:18:30.154Z,238.10
2017-12-21T12:21:03.731Z,209.13
2017-12-21T12:23:37.647Z,182.17
2017-12-21T12:26:11.512Z,205.00
2017-12-21T12:28:45.320Z,177.13
2017-12-21T12:31:19.244Z,168.73
2017-12-21T12:33:54.070Z,147.07
2017-12-21T12:36:28.479Z,125.43
2017-12-21T12:39:06.077Z,118.70
2017-12-21T12:41:39.961Z,143.30
2017-12-21T12:44:13.918Z,124.03
2017-12-21T12:46:48.472Z,125.83
2017-12-21T12:49:22.809Z,133.90
2017-12-21T12:51:57.015Z,125.20
2017-12-21T12:54:31.198Z,129.77
2017-12-21T12:57:04.854Z,110.00
2017-12-21T12:59:44.506Z,109.47
2017-12-21T13:02:18.698Z,134.60
2017-12-21T13:04:53.055Z,157.97
2017-12-21T13:07:27.539Z,160.30
2017-12-21T13:10:01.986Z,140.30
2017-12-21T13:12:35.793Z,151.23
2017-12-21T13:15:09.578Z,197.57
2017-12-21T13:17:43.227Z,200.03
2017-12-21T13:20:17.206Z,195.60
2017-12-21T13:22:51.948Z,156.63
2017-12-21T13:25:26.276Z,137.73
2017-12-21T13:28:00.779Z,177.07
2017-12-21T13:30:34.495Z,179.90
2017-12-21T13:33:08.181Z,193.70
2017-12-21T13:35:42.266Z,191.40
2017-12-21T14:02:13.871Z,200.97
2017-12-21T14:04:47.760Z,206.73
2017-12-21T14:07:22.989Z,208.57
2017-12-21T14:09:57.051Z,203.60
2017-12-21T14:12:30.799Z,217.33
2017-12-21T14:15:04.525Z,213.77
2017-12-21T14:17:38.282Z,200.97
2017-12-21T14:20:12.019Z,220.50
2017-12-21T14:28:45.622Z,215.63
2017-12-21T14:31:19.507Z,213.43
2017-12-21T14:33:53.410Z,231.53
2017-12-21T14:36:27.762Z,245.50
2017-12-21T14:39:02.228Z,199.37
2017-12-21T14:41:36.523Z,219.13
2017-12-21T14:44:10.896Z,222.57
2017-12-21T14:46:46.223Z,201.67
2017-12-21T14:49:20.749Z,199.13
2017-12-21T14:51:55.388Z,202.17
2017-12-21T14:54:29.385Z,218.13
2017-12-21T14:57:03.849Z,229.43
2017-12-21T14:59:38.502Z,248.57
2017-12-21T15:02:12.503Z,244.73
2017-12-21T15:04:46.740Z,290.73
2017-12-21T15:07:25.789Z,330.50
2017-12-21T15:10:00.162Z,277.20
2017-12-21T15:12:35.893Z,259.53
2017-12-21T15:15:09.692Z,244.40
2017-12-21T15:17:43.771Z,306.90
2017-12-21T15:20:17.483Z,314.03
2017-12-21T15:22:51.350Z,232.20
2017-12-21T15:25:25.339Z,267.90
2017-12-21T15:27:59.355Z,252.73
2017-12-21T15:33:12.781Z,214.17
2017-12-21T15:35:46.629Z,198.03
2017-12-21T15:38:20.482Z,263.17
2017-12-21T15:40:54.317Z,213.27
2017-12-21T15:43:28.333Z,241.93
2017-12-21T15:46:02.187Z,254.80
2017-12-21T15:48:37.807Z,230.50
2017-12-21T15:51:11.561Z,230.07
2017-12-21T15:53:45.676Z,211.13
2017-12-21T15:56:20.131Z,246.30
2017-12-21T15:58:54.306Z,191.50
2017-12-21T16:01:29.035Z,231.33
2017-12-21T16:04:03.599Z,264.77
2017-12-21T16:06:38.186Z,269.13
2017-12-21T16:09:12.616Z,229.07
2017-12-21T16:11:46.696Z,183.40
2017-12-21T16:14:21.260Z,191.50
2017-12-21T16:16:55.446Z,261.40
2017-12-21T16:19:29.516Z,225.83
2017-12-21T16:22:04.080Z,256.80
2017-12-21T16:24:38.974Z,224.20
2017-12-21T16:27:14.592Z,186.17
2017-12-21T16:29:48.522Z,212.27
2017-12-21T16:32:22.364Z,201.73
2017-12-21T16:34:56.219Z,198.60
2017-12-21T16:44:20.058Z,166.50
2017-12-21T16:46:53.855Z,169.97
2017-12-21T17:07:25.625Z,155.57
2017-12-21T17:09:59.629Z,176.73
2017-12-21T17:12:34.181Z,169.50
2017-12-21T17:15:09.100Z,131.73
2017-12-21T17:17:43.759Z,174.93
2017-12-21T17:20:17.908Z,115.03
2017-12-21T17:22:52.262Z,84.87
2017-12-21T17:25:26.795Z,96.60
2017-12-21T17:43:01.470Z,140.00
2017-12-21T17:45:36.159Z,176.33
2017-12-21T17:48:10.544Z,137.40
2017-12-21T17:50:44.291Z,155.37
2017-12-21T17:53:18.369Z,175.30
2017-12-21T17:55:52.874Z,155.07
2017-12-21T17:58:26.517Z,133.20
2017-12-21T18:34:00.297Z,135.03
2017-12-21T18:36:43.607Z,228.03
2017-12-21T18:39:17.543Z,169.20
2017-12-21T18:41:51.585Z,204.33
2017-12-21T18:44:25.245Z,147.17
2017-12-21T18:46:59.242Z,136.87
2017-12-21T18:49:33.798Z,144.20
2017-12-21T18:52:08.449Z,149.57
2017-12-21T19:12:49.424Z,196.73
2017-12-21T19:15:23.125Z,174.13
2017-12-21T19:17:56.741Z,183.50
2017-12-21T19:20:31.323Z,177.97
2017-12-21T19:23:05.410Z,161.90
2017-12-21T19:25:39.182Z,172.87
2017-12-21T19:28:13.142Z,194.90
2017-12-21T19:30:47.497Z,147.70
2017-12-21T19:48:19.505Z,172.33
2017-12-21T19:50:53.901Z,201.27
2017-12-21T19:53:27.806Z,245.23
2017-12-21T19:56:01.793Z,220.00
2017-12-21T19:58:35.726Z,203.13
2017-12-21T20:01:10.010Z,174.40
2017-12-21T20:03:43.777Z,203.77
2017-12-21T20:06:17.413Z,207.97
2017-12-21T20:08:52.173Z,219.23
2017-12-21T20:11:25.932Z,218.93
2017-12-21T20:13:59.755Z,211.47
2017-12-21T20:16:33.647Z,244.40
2017-12-21T20:19:08.944Z,240.87
2017-12-21T20:21:43.018Z,234.37
2017-12-21T20:24:16.808Z,193.60
2017-12-21T20:26:50.537Z,165.97
2017-12-21T20:47:21.930Z,246.13
2017-12-21T20:49:55.822Z,215.20
2017-12-21T20:52:29.585Z,274.47
2017-12-21T20:55:03.479Z,250.80
2017-12-21T20:57:37.350Z,266.63
2017-12-21T21:00:11.059Z,272.60
2017-12-21T21:02:44.955Z,252.53
2017-12-21T21:05:19.032Z,295.07
2017-12-21T21:31:52.357Z,339.80
2017-12-21T21:34:27.400Z,325.80
2017-12-21T21:37:01.971Z,295.37
2017-12-21T21:39:36.369Z,313.53
2017-12-21T21:42:11.386Z,252.73
2017-12-21T21:44:46.294Z,290.37
2017-12-21T21:47:21.051Z,260.57
2017-12-21T21:49:55.975Z,270.37
2017-12-21T21:52:32.468Z,300.77
2017-12-21T21:55:08.191Z,296.47
2017-12-21T21:57:42.959Z,307.73
2017-12-21T22:00:18.249Z,302.73
2017-12-21T22:02:53.510Z,314.33
2017-12-21T22:05:28.285Z,277.03
2017-12-21T22:08:03.227Z,303.97
2017-12-21T22:10:37.587Z,275.77
2017-12-21T22:31:14.487Z,271.23
2017-12-21T22:33:49.304Z,319.23
2017-12-21T22:36:24.996Z,274.60
2017-12-21T22:38:59.766Z,289.03
2017-12-21T22:41:34.956Z,255.43
2017-12-21T22:44:10.403Z,249.40
2017-12-21T22:46:45.021Z,275.10
2017-12-21T22:49:20.345Z,244.13
2017-12-21T23:09:56.942Z,144.83
2017-12-21T23:12:31.503Z,129.03
2017-12-21T23:15:06.110Z,125.80
2017-12-21T23:17:41.283Z,97.00
2017-12-21T23:20:16.034Z,89.90
2017-12-21T23:22:50.736Z,88.43
2017-12-21T23:25:25.386Z,68.90
2017-12-21T23:28:00.080Z,97.63
2017-12-21T23:36:36.203Z,66.00
2017-12-21T23:39:10.868Z,93.80
2017-12-21T23:41:45.957Z,63.93
2017-12-21T23:44:21.153Z,62.77
2017-12-21T23:46:56.071Z,85.93
2017-12-21T23:49:31.089Z,64.00
2017-12-21T23:52:05.958Z,76.43
2017-12-21T23:54:40.319Z,77.10
